createdAt,value
2023-04-21T00:00:36.752Z,88.44
2023-04-21T00:03:08.438Z,87.92
2023-04-21T00:05:42.561Z,87.63
2023-04-21T00:08:16.475Z,87.50
2023-04-21T00:10:48.097Z,87.49
2023-04-21T00:13:19.581Z,87.74
2023-04-21T00:15:51.401Z,87.44
2023-04-21T00:18:22.914Z,87.57
2023-04-21T00:20:54.831Z,87.51
2023-04-21T00:23:26.371Z,87.90
2023-04-21T00:25:57.932Z,87.54
2023-04-21T00:28:29.816Z,87.73
2023-04-21T00:31:01.364Z,87.53
2023-04-21T00:33:32.817Z,87.47
2023-04-21T00:36:04.699Z,87.45
2023-04-21T00:38:36.471Z,87.24
2023-04-21T00:41:08.062Z,87.23
2023-04-21T00:44:06.063Z,87.31
2023-04-21T00:46:38.663Z,87.67
2023-04-21T00:49:10.422Z,87.50
2023-04-21T00:51:42.109Z,87.16
2023-04-21T00:54:14.267Z,87.28
2023-04-21T00:56:45.971Z,87.45
2023-04-21T00:59:17.699Z,87.43
2023-04-21T01:01:49.501Z,87.74
2023-04-21T01:04:21.063Z,87.30
2023-04-21T01:06:54.145Z,87.32
2023-04-21T01:09:27.037Z,87.06
2023-04-21T01:12:09.910Z,87.03
2023-04-21T01:14:41.594Z,87.37
2023-04-21T01:17:13.209Z,87.46
2023-04-21T01:19:45.615Z,87.20
2023-04-21T01:22:17.060Z,87.25
2023-04-21T01:24:49.487Z,86.88
2023-04-21T01:27:21.334Z,86.97
2023-04-21T01:29:53.345Z,87.34
2023-04-21T01:32:28.960Z,87.44
2023-04-21T01:35:00.812Z,87.47
2023-04-21T01:37:33.981Z,87.32
2023-04-21T01:40:07.794Z,86.68
2023-04-21T01:42:41.505Z,86.17
2023-04-21T01:45:13.183Z,85.80
2023-04-21T01:47:44.756Z,86.20
2023-04-21T01:50:16.563Z,86.38
2023-04-21T01:52:48.102Z,86.77
2023-04-21T01:55:19.752Z,86.54
2023-04-21T01:57:51.295Z,86.13
2023-04-21T02:00:22.856Z,85.84
2023-04-21T02:02:54.475Z,86.33
2023-04-21T02:05:26.205Z,85.83
2023-04-21T02:07:57.812Z,85.55
2023-04-21T02:10:29.299Z,85.45
2023-04-21T02:13:01.129Z,85.42
2023-04-21T02:15:33.602Z,85.82
2023-04-21T02:18:05.360Z,86.12
2023-04-21T02:20:37.629Z,86.49
2023-04-21T02:23:10.228Z,86.68
2023-04-21T02:25:41.697Z,87.25
2023-04-21T02:28:13.195Z,87.80
2023-04-21T02:30:44.668Z,87.29
2023-04-21T02:33:16.251Z,88.06
2023-04-21T02:35:47.747Z,88.30
2023-04-21T02:38:19.287Z,88.21
2023-04-21T02:40:51.054Z,88.61
2023-04-21T02:43:22.632Z,88.43
2023-04-21T02:45:54.096Z,88.61
2023-04-21T02:48:26.750Z,88.73
2023-04-21T02:50:58.427Z,88.53
2023-04-21T02:53:30.356Z,89.44
2023-04-21T02:56:04.636Z,89.68
2023-04-21T02:58:37.308Z,89.49
2023-04-21T03:01:08.858Z,89.52
2023-04-21T03:03:41.966Z,89.70
2023-04-21T03:06:14.159Z,89.61
2023-04-21T03:08:45.892Z,89.22
2023-04-21T03:11:17.389Z,89.52
2023-04-21T03:13:48.845Z,89.86
2023-04-21T03:16:20.325Z,90.14
2023-04-21T03:18:51.819Z,90.26
2023-04-21T03:21:23.265Z,91.05
2023-04-21T03:23:54.770Z,90.44
2023-04-21T03:26:26.248Z,90.60
2023-04-21T03:28:57.720Z,90.89
2023-04-21T03:31:29.257Z,90.26
2023-04-21T03:34:00.833Z,90.30
2023-04-21T03:36:32.293Z,90.72
2023-04-21T03:39:13.140Z,90.41
2023-04-21T03:41:52.203Z,90.00
2023-04-21T03:44:27.138Z,90.41
2023-04-21T03:46:58.856Z,90.71
2023-04-21T03:49:30.723Z,90.56
2023-04-21T03:52:02.450Z,90.87
2023-04-21T03:54:34.002Z,90.70
2023-04-21T03:57:05.570Z,90.42
2023-04-21T03:59:37.113Z,90.53
2023-04-21T04:02:08.869Z,90.47
2023-04-21T04:04:41.023Z,90.30
2023-04-21T04:07:12.662Z,90.63
2023-04-21T04:09:44.708Z,90.91
2023-04-21T04:12:16.195Z,90.74
2023-04-21T04:14:47.631Z,90.80
2023-04-21T04:17:19.066Z,91.16
2023-04-21T04:19:50.558Z,91.21
2023-04-21T04:22:22.000Z,91.19
2023-04-21T04:24:53.510Z,91.34
2023-04-21T04:27:25.191Z,91.49
2023-04-21T04:29:57.684Z,91.73
2023-04-21T04:32:29.382Z,92.18
2023-04-21T04:35:00.989Z,92.20
2023-04-21T04:37:34.450Z,92.23
2023-04-21T04:40:07.452Z,91.86
2023-04-21T04:42:40.101Z,91.97
2023-04-21T04:45:11.667Z,91.96
2023-04-21T04:47:43.550Z,91.85
2023-04-21T04:50:15.091Z,92.17
2023-04-21T04:52:47.637Z,91.66
2023-04-21T04:55:19.453Z,91.69
2023-04-21T04:57:51.770Z,91.55
2023-04-21T05:00:23.347Z,91.38
2023-04-21T05:02:55.934Z,91.97
2023-04-21T05:05:27.585Z,91.88
2023-04-21T05:07:59.135Z,91.75
2023-04-21T05:10:30.599Z,91.54
2023-04-21T05:13:02.095Z,91.95
2023-04-21T05:15:33.571Z,91.85
2023-04-21T05:18:05.306Z,91.81
2023-04-21T05:20:36.855Z,90.90
2023-04-21T05:23:08.745Z,91.58
2023-04-21T05:25:40.281Z,91.34
2023-04-21T05:28:11.854Z,91.14
2023-04-21T05:30:43.426Z,92.02
2023-04-21T05:33:17.859Z,92.06
2023-04-21T05:35:49.488Z,90.96
2023-04-21T05:38:21.191Z,90.88
2023-04-21T05:40:55.329Z,90.96
2023-04-21T05:43:27.105Z,90.27
2023-04-21T05:45:58.948Z,89.48
2023-04-21T05:48:30.496Z,88.76
2023-04-21T05:51:12.283Z,88.34
2023-04-21T05:53:45.416Z,88.10
2023-04-21T05:56:16.909Z,88.23
2023-04-21T05:58:48.401Z,88.14
2023-04-21T06:01:20.221Z,87.93
2023-04-21T06:03:51.990Z,87.29
2023-04-21T06:06:25.671Z,87.03
2023-04-21T06:08:57.449Z,86.69
2023-04-21T06:11:28.951Z,86.23
2023-04-21T06:14:01.775Z,83.32
2023-04-21T06:16:34.308Z,82.99
2023-04-21T06:19:05.957Z,82.23
2023-04-21T06:21:37.464Z,81.02
2023-04-21T06:24:09.232Z,80.81
2023-04-21T06:26:40.720Z,80.46
2023-04-21T06:29:12.222Z,78.14
2023-04-21T06:31:43.752Z,79.86
2023-04-21T06:34:15.933Z,79.29
2023-04-21T06:36:47.452Z,77.35
2023-04-21T06:39:18.921Z,76.79
2023-04-21T06:41:50.359Z,77.07
2023-04-21T06:44:22.010Z,75.28
2023-04-21T06:46:53.708Z,75.26
2023-04-21T06:49:25.338Z,75.31
2023-04-21T06:51:56.852Z,76.03
2023-04-21T06:54:28.279Z,75.75
2023-04-21T06:56:59.920Z,74.51
2023-04-21T06:59:31.574Z,74.60
2023-04-21T07:02:03.256Z,74.50
2023-04-21T07:04:34.963Z,74.99
2023-04-21T07:07:06.692Z,74.99
2023-04-21T07:09:38.408Z,72.01
2023-04-21T07:12:09.957Z,73.52
2023-04-21T07:14:41.624Z,73.34
2023-04-21T07:17:13.270Z,74.21
2023-04-21T07:19:44.843Z,73.38
2023-04-21T07:22:16.400Z,73.72
2023-04-21T07:24:49.355Z,73.86
2023-04-21T07:27:21.194Z,73.39
2023-04-21T07:29:52.757Z,72.05
2023-04-21T07:32:24.460Z,71.94
2023-04-21T07:34:56.297Z,70.63
2023-04-21T07:37:27.808Z,71.45
2023-04-21T07:39:59.532Z,71.46
2023-04-21T07:42:31.058Z,70.19
2023-04-21T07:45:03.573Z,69.25
2023-04-21T07:47:35.679Z,68.74
2023-04-21T07:50:07.967Z,68.22
2023-04-21T07:52:39.483Z,68.35
2023-04-21T07:55:11.370Z,68.91
2023-04-21T07:57:42.986Z,68.76
2023-04-21T08:00:15.473Z,69.76
2023-04-21T08:02:47.179Z,67.28
2023-04-21T08:05:18.956Z,66.09
2023-04-21T08:07:50.765Z,66.60
2023-04-21T08:13:11.526Z,67.94
2023-04-21T08:15:43.083Z,68.35
2023-04-21T08:18:17.209Z,66.58
2023-04-21T08:20:49.822Z,67.47
2023-04-21T08:23:21.355Z,67.90
2023-04-21T08:25:52.923Z,65.07
2023-04-21T08:28:24.433Z,63.65
2023-04-21T08:30:55.961Z,64.47
2023-04-21T08:33:27.963Z,63.41
2023-04-21T08:36:07.403Z,63.90
2023-04-21T08:38:43.817Z,62.29
2023-04-21T08:41:15.503Z,60.22
2023-04-21T08:43:47.023Z,59.57
2023-04-21T08:46:19.068Z,61.16
2023-04-21T08:48:52.230Z,59.68
2023-04-21T08:51:28.060Z,60.17
2023-04-21T08:53:59.533Z,60.92
2023-04-21T08:56:31.054Z,60.99
2023-04-21T08:59:02.625Z,59.52
2023-04-21T09:01:34.254Z,60.55
2023-04-21T09:04:17.499Z,59.52
2023-04-21T09:06:49.278Z,57.46
2023-04-21T09:09:21.003Z,58.45
2023-04-21T09:11:59.883Z,58.41
2023-04-21T09:14:35.209Z,58.37
2023-04-21T09:17:06.809Z,60.23
2023-04-21T09:19:38.681Z,58.67
2023-04-21T09:22:15.648Z,57.99
2023-04-21T09:24:58.000Z,57.50
2023-04-21T09:27:29.611Z,57.15
2023-04-21T09:30:07.184Z,57.28
2023-04-21T09:32:40.475Z,57.34
2023-04-21T09:35:12.267Z,56.74
2023-04-21T09:37:44.614Z,56.03
2023-04-21T09:40:18.568Z,56.75
2023-04-21T09:42:50.610Z,55.84
2023-04-21T09:45:38.962Z,56.36
2023-04-21T09:48:16.546Z,54.83
2023-04-21T09:53:25.450Z,55.36
2023-04-21T09:55:58.647Z,54.65
2023-04-21T09:58:37.134Z,53.51
2023-04-21T10:01:09.795Z,54.99
2023-04-21T10:03:43.555Z,54.34
2023-04-21T10:06:15.643Z,53.65
2023-04-21T10:08:47.939Z,53.29
2023-04-21T10:11:19.327Z,54.72
2023-04-21T10:13:51.201Z,53.55
2023-04-21T10:16:23.309Z,54.61
2023-04-21T10:18:54.849Z,54.51
2023-04-21T10:21:26.858Z,51.47
2023-04-21T10:23:59.220Z,53.21
2023-04-21T10:26:35.540Z,51.29
2023-04-21T10:29:09.414Z,52.17
2023-04-21T10:31:54.819Z,50.80
2023-04-21T10:34:26.414Z,52.14
2023-04-21T10:36:58.130Z,51.71
2023-04-21T10:39:53.292Z,50.35
2023-04-21T10:42:29.005Z,52.80
2023-04-21T10:45:05.973Z,50.21
2023-04-21T10:47:46.500Z,51.19
2023-04-21T10:50:23.257Z,50.94
2023-04-21T10:52:56.469Z,52.29
2023-04-21T10:55:29.595Z,51.31
2023-04-21T10:58:03.098Z,50.38
2023-04-21T11:00:35.825Z,49.30
2023-04-21T11:03:08.478Z,51.45
2023-04-21T11:05:41.318Z,49.51
2023-04-21T11:08:14.987Z,50.30
2023-04-21T11:10:48.559Z,49.60
2023-04-21T11:13:25.425Z,49.27
2023-04-21T11:16:06.645Z,49.17
2023-04-21T11:18:42.298Z,50.64
2023-04-21T11:21:18.615Z,49.90
2023-04-21T11:23:55.088Z,51.28
2023-04-21T11:26:34.482Z,50.74
2023-04-21T11:29:08.177Z,51.22
2023-04-21T11:31:42.024Z,51.42
2023-04-21T11:34:15.459Z,51.46
2023-04-21T11:36:48.954Z,50.16
2023-04-21T11:39:22.229Z,51.52
2023-04-21T11:41:54.616Z,51.02
2023-04-21T11:44:33.259Z,49.95
2023-04-21T11:47:19.119Z,50.86
2023-04-21T11:49:56.177Z,51.02
2023-04-21T11:52:39.314Z,49.35
2023-04-21T11:55:16.335Z,49.76
2023-04-21T11:57:51.179Z,50.90
2023-04-21T12:00:22.746Z,49.65
2023-04-21T12:02:56.492Z,49.51
2023-04-21T12:05:36.062Z,47.44
2023-04-21T12:08:14.844Z,49.44
2023-04-21T12:10:47.157Z,49.11
2023-04-21T12:13:28.606Z,47.02
2023-04-21T12:16:03.119Z,49.07
2023-04-21T12:18:36.750Z,48.31
2023-04-21T12:21:08.443Z,48.79
2023-04-21T12:23:39.986Z,48.11
2023-04-21T12:26:12.037Z,48.22
2023-04-21T12:28:43.432Z,49.81
2023-04-21T12:31:14.981Z,49.53
2023-04-21T12:33:46.673Z,48.29
2023-04-21T12:36:18.308Z,48.58
2023-04-21T12:38:49.887Z,48.82
2023-04-21T12:41:21.475Z,48.20
2023-04-21T12:43:53.025Z,48.00
2023-04-21T12:46:24.670Z,48.08
2023-04-21T12:48:56.444Z,47.40
2023-04-21T12:51:27.974Z,47.90
2023-04-21T12:53:59.684Z,46.85
2023-04-21T12:56:31.412Z,45.99
2023-04-21T12:59:03.032Z,46.80
2023-04-21T13:01:34.571Z,47.43
2023-04-21T13:04:08.201Z,45.60
2023-04-21T13:06:40.062Z,46.68
2023-04-21T13:09:11.757Z,45.10
2023-04-21T13:11:43.278Z,44.79
2023-04-21T13:14:15.980Z,44.01
2023-04-21T13:16:47.575Z,43.55
2023-04-21T13:19:19.259Z,43.54
2023-04-21T13:21:53.849Z,41.84
2023-04-21T13:24:26.800Z,40.99
2023-04-21T13:26:59.209Z,40.68
2023-04-21T13:29:33.994Z,40.99
2023-04-21T13:32:07.615Z,41.22
2023-04-21T13:34:39.118Z,41.38
2023-04-21T13:37:12.531Z,40.22
2023-04-21T13:39:44.068Z,39.20
2023-04-21T13:42:15.664Z,39.05
2023-04-21T13:44:47.254Z,37.42
2023-04-21T13:47:18.749Z,39.25
2023-04-21T13:49:51.467Z,37.96
2023-04-21T13:52:23.099Z,38.71
2023-04-21T13:54:54.690Z,36.54
2023-04-21T13:57:26.592Z,37.47
2023-04-21T13:59:58.337Z,37.12
2023-04-21T14:02:30.084Z,36.93
2023-04-21T14:05:02.137Z,35.25
2023-04-21T14:07:35.789Z,36.41
2023-04-21T14:10:07.764Z,34.93
2023-04-21T14:12:39.244Z,34.19
2023-04-21T14:15:13.103Z,35.17
2023-04-21T14:17:44.693Z,34.63
2023-04-21T14:20:16.222Z,35.04
2023-04-21T14:22:48.108Z,34.76
2023-04-21T14:25:19.445Z,31.93
2023-04-21T14:27:51.033Z,30.69
2023-04-21T14:30:22.583Z,28.46
2023-04-21T14:32:54.064Z,24.62
2023-04-21T14:35:25.752Z,21.98
2023-04-21T14:38:00.595Z,19.60
2023-04-21T14:40:32.065Z,18.51
2023-04-21T14:43:03.504Z,15.71
2023-04-21T14:45:35.637Z,15.49
2023-04-21T14:48:07.239Z,14.25
2023-04-21T14:50:38.835Z,14.66
2023-04-21T14:53:10.954Z,13.50
2023-04-21T14:55:42.471Z,12.27
2023-04-21T14:58:13.987Z,11.45
2023-04-21T15:00:45.885Z,11.86
2023-04-21T15:03:17.524Z,10.12
2023-04-21T15:05:49.295Z,10.50
2023-04-21T15:08:20.992Z,10.00
2023-04-21T15:10:53.498Z,9.89
2023-04-21T15:13:25.105Z,9.98
2023-04-21T15:15:56.706Z,9.66
2023-04-21T15:18:28.246Z,9.31
2023-04-21T15:20:59.916Z,9.31
2023-04-21T15:23:33.657Z,9.82
2023-04-21T15:26:05.223Z,9.61
2023-04-21T15:28:36.787Z,9.28
2023-04-21T15:31:10.063Z,8.96
2023-04-21T15:33:42.004Z,9.41
2023-04-21T15:36:13.573Z,9.44
2023-04-21T15:38:45.192Z,9.67
2023-04-21T15:41:17.481Z,10.08
2023-04-21T15:43:49.120Z,9.37
2023-04-21T15:46:20.722Z,9.11
2023-04-21T15:48:52.283Z,9.60
2023-04-21T15:51:23.848Z,8.94
2023-04-21T15:53:55.627Z,8.91
2023-04-21T15:56:27.203Z,8.56
2023-04-21T15:58:58.769Z,7.86
2023-04-21T16:01:30.409Z,7.93
2023-04-21T16:04:02.146Z,8.40
2023-04-21T16:06:34.791Z,8.39
2023-04-21T16:09:06.524Z,9.58
2023-04-21T16:11:38.203Z,8.61
2023-04-21T16:14:09.805Z,9.57
2023-04-21T16:16:41.554Z,13.39
2023-04-21T16:19:13.177Z,17.42
2023-04-21T16:21:44.818Z,18.98
2023-04-21T16:24:16.610Z,20.73
2023-04-21T16:26:48.192Z,22.68
2023-04-21T16:29:19.923Z,24.10
2023-04-21T16:31:51.493Z,25.64
2023-04-21T16:34:23.096Z,27.12
2023-04-21T16:36:54.632Z,26.43
2023-04-21T16:39:26.221Z,28.99
2023-04-21T16:41:57.689Z,28.67
2023-04-21T16:44:29.170Z,29.64
2023-04-21T16:47:00.813Z,30.08
2023-04-21T16:49:32.572Z,30.41
2023-04-21T16:52:03.943Z,31.82
2023-04-21T16:54:35.624Z,31.66
2023-04-21T16:57:07.344Z,33.18
2023-04-21T16:59:38.964Z,34.37
2023-04-21T17:02:13.107Z,34.40
2023-04-21T17:04:47.887Z,34.70
2023-04-21T17:07:19.478Z,34.58
2023-04-21T17:09:51.341Z,34.93
2023-04-21T17:12:22.919Z,35.82
2023-04-21T17:14:54.511Z,35.97
2023-04-21T17:17:26.197Z,35.97
2023-04-21T17:19:57.836Z,36.47
2023-04-21T17:22:29.393Z,36.52
2023-04-21T17:25:00.923Z,36.58
2023-04-21T17:27:35.750Z,36.91
2023-04-21T17:30:11.300Z,37.69
2023-04-21T17:32:43.782Z,36.54
2023-04-21T17:35:15.471Z,37.54
2023-04-21T17:37:47.236Z,38.50
2023-04-21T17:40:18.872Z,39.18
2023-04-21T17:42:50.466Z,40.54
2023-04-21T17:45:22.319Z,41.67
2023-04-21T17:47:54.067Z,40.53
2023-04-21T17:50:27.398Z,40.83
2023-04-21T17:52:58.982Z,42.37
2023-04-21T17:55:30.918Z,43.24
2023-04-21T17:58:02.575Z,43.47
2023-04-21T18:00:34.550Z,44.25
2023-04-21T18:03:06.600Z,44.25
2023-04-21T18:05:38.340Z,43.29
2023-04-21T18:08:10.025Z,44.42
2023-04-21T18:10:41.920Z,44.61
2023-04-21T18:13:13.495Z,46.03
2023-04-21T18:15:45.362Z,46.96
2023-04-21T18:18:17.821Z,47.63
2023-04-21T18:20:49.327Z,46.96
2023-04-21T18:23:21.416Z,48.00
2023-04-21T18:25:52.919Z,48.74
2023-04-21T18:28:24.399Z,48.14
2023-04-21T18:30:57.730Z,49.46
2023-04-21T18:33:31.728Z,50.15
2023-04-21T18:36:03.441Z,50.45
2023-04-21T18:38:39.414Z,50.48
2023-04-21T18:41:11.026Z,51.05
2023-04-21T18:43:42.669Z,51.62
2023-04-21T18:46:18.160Z,51.36
2023-04-21T18:48:50.179Z,52.10
2023-04-21T18:51:21.783Z,52.29
2023-04-21T18:53:53.285Z,52.67
2023-04-21T18:56:26.890Z,52.99
2023-04-21T18:58:59.165Z,52.64
2023-04-21T19:01:31.069Z,52.57
2023-04-21T19:04:02.890Z,52.58
2023-04-21T19:06:34.939Z,51.64
2023-04-21T19:09:06.624Z,51.04
2023-04-21T19:11:38.143Z,50.85
2023-04-21T19:14:09.693Z,51.55
2023-04-21T19:16:43.370Z,49.27
2023-04-21T19:19:14.931Z,48.57
2023-04-21T19:21:46.459Z,48.70
2023-04-21T19:24:18.009Z,47.84
2023-04-21T19:26:49.530Z,48.38
2023-04-21T19:29:21.225Z,48.28
2023-04-21T19:31:53.436Z,48.64
2023-04-21T19:34:25.186Z,48.61
2023-04-21T19:36:56.803Z,48.76
2023-04-21T19:39:28.565Z,48.72
2023-04-21T19:42:01.131Z,49.46
2023-04-21T19:44:33.905Z,49.64
2023-04-21T19:47:05.695Z,49.65
2023-04-21T19:49:37.434Z,49.46
2023-04-21T19:52:09.156Z,49.31
2023-04-21T19:54:41.281Z,49.43
2023-04-21T19:57:16.055Z,50.10
2023-04-21T19:59:49.041Z,49.56
2023-04-21T20:02:20.868Z,50.06
2023-04-21T20:04:53.647Z,50.02
2023-04-21T20:07:26.311Z,50.13
2023-04-21T20:09:57.859Z,50.20
2023-04-21T20:12:30.605Z,50.52
2023-04-21T20:15:02.917Z,50.29
2023-04-21T20:17:34.557Z,50.43
2023-04-21T20:20:07.112Z,50.58
2023-04-21T20:22:38.798Z,51.18
2023-04-21T20:25:10.785Z,51.20
2023-04-21T20:27:42.454Z,51.36
2023-04-21T20:30:14.192Z,51.40
2023-04-21T20:32:45.897Z,51.57
2023-04-21T20:35:17.866Z,51.18
2023-04-21T20:37:50.359Z,51.55
2023-04-21T20:40:22.254Z,51.63
2023-04-21T20:42:53.818Z,52.00
2023-04-21T20:45:26.233Z,52.74
2023-04-21T20:47:57.898Z,52.84
2023-04-21T20:50:29.588Z,53.18
2023-04-21T20:53:02.129Z,53.77
2023-04-21T20:55:33.740Z,54.98
2023-04-21T20:58:05.495Z,54.28
2023-04-21T21:00:37.378Z,54.95
2023-04-21T21:03:11.602Z,55.17
2023-04-21T21:05:43.416Z,55.55
2023-04-21T21:08:15.288Z,54.96
2023-04-21T21:10:46.802Z,56.07
2023-04-21T21:13:18.387Z,55.50
2023-04-21T21:15:51.287Z,56.01
2023-04-21T21:18:22.850Z,55.61
2023-04-21T21:20:54.578Z,56.75
2023-04-21T21:23:26.282Z,56.51
2023-04-21T21:25:58.585Z,56.49
2023-04-21T21:28:30.445Z,56.55
2023-04-21T21:31:02.202Z,56.91
2023-04-21T21:33:33.759Z,56.85
2023-04-21T21:36:05.746Z,57.14
2023-04-21T21:38:37.430Z,56.92
2023-04-21T21:41:11.567Z,57.11
2023-04-21T21:43:43.173Z,57.40
2023-04-21T21:46:14.846Z,57.32
2023-04-21T21:48:46.517Z,57.64
2023-04-21T21:51:18.123Z,58.08
2023-04-21T21:53:49.689Z,57.50
2023-04-21T21:56:21.990Z,57.28
2023-04-21T21:58:53.560Z,58.01
2023-04-21T22:01:25.241Z,58.76
2023-04-21T22:03:57.044Z,58.54
2023-04-21T22:06:29.074Z,58.71
2023-04-21T22:09:01.052Z,58.80
2023-04-21T22:11:32.676Z,58.87
2023-04-21T22:14:18.606Z,59.61
2023-04-21T22:16:57.414Z,59.76
2023-04-21T22:19:29.322Z,60.10
2023-04-21T22:22:00.960Z,59.81
2023-04-21T22:24:32.617Z,60.27
2023-04-21T22:27:04.535Z,60.19
2023-04-21T22:29:36.575Z,61.44
2023-04-21T22:32:09.309Z,60.87
2023-04-21T22:34:40.896Z,60.82
2023-04-21T22:37:12.576Z,60.29
2023-04-21T22:39:44.157Z,60.28
2023-04-21T22:42:15.839Z,60.99
2023-04-21T22:44:47.456Z,61.82
2023-04-21T22:47:19.359Z,61.44
2023-04-21T22:49:51.327Z,61.39
2023-04-21T22:52:23.020Z,61.36
2023-04-21T22:54:54.700Z,62.05
2023-04-21T22:57:27.029Z,61.80
2023-04-21T22:59:58.570Z,62.16
2023-04-21T23:02:30.393Z,61.99
2023-04-21T23:05:02.236Z,61.88
2023-04-21T23:07:33.929Z,61.77
2023-04-21T23:10:05.955Z,61.82
2023-04-21T23:12:37.610Z,62.05
2023-04-21T23:15:09.452Z,61.93
2023-04-21T23:17:42.767Z,62.08
2023-04-21T23:20:15.356Z,62.48
2023-04-21T23:22:47.017Z,62.24
2023-04-21T23:25:19.665Z,61.88
2023-04-21T23:27:51.325Z,61.48
2023-04-21T23:30:22.935Z,61.37
2023-04-21T23:32:54.843Z,61.35
2023-04-21T23:35:26.832Z,61.49
2023-04-21T23:37:58.451Z,60.99
2023-04-21T23:40:30.200Z,61.48
2023-04-21T23:43:01.813Z,61.75
2023-04-21T23:45:33.473Z,61.94
2023-04-21T23:48:05.170Z,62.05
2023-04-21T23:50:36.771Z,62.20
2023-04-21T23:53:08.279Z,62.90
2023-04-21T23:55:39.900Z,63.15
2023-04-21T23:58:11.968Z,62.56
